Time;durP1;ratioP1;P1;durP2;ratioP2;P2;SDS_P1;SDS_P2;PMS_P1;PMS_P2;Temp;Humidity;BMP_temperature;BMP_pressure;BME280_temperature;BME280_humidity;BME280_pressure;Samples;Min_cycle;Max_cycle;Signal;HPM_P1;HPM_P2
2024/03/17 00:00:28;;;;;;;;;;;;;;;15.85;53.24;98985.58;68287;1283;1016085;-63
2024/03/17 00:03:50;;;;;;;;;;;;;;;15.96;52.34;98968.99;68288;1283;1015973;-66
2024/03/17 00:06:53;;;;;;;;;;;;;;;15.91;52.28;98975.20;68286;1283;1015995;-69
2024/03/17 00:09:56;;;;;;;;;;;;;;;15.88;52.12;98996.64;68296;1283;1016112;-68
2024/03/17 00:12:58;;;;;;;;;;;;;;;15.73;52.26;98990.39;68281;1283;1015764;-69
2024/03/17 00:16:01;;;;;;;;;;;;;;;15.66;51.85;98992.52;68292;1283;1015247;-69
2024/03/17 00:19:03;;;;;;;;;;;;;;;15.70;52.04;98998.20;68289;1283;1015138;-69
2024/03/17 00:22:08;;;;;;;;;;;;;;;15.48;52.63;99002.94;68273;1283;1015870;-69
2024/03/17 00:25:11;;;;;;;;;;;;;;;15.73;52.03;99002.59;68292;1283;1015344;-69
2024/03/17 00:28:13;;;;;;;;;;;;;;;16.03;51.13;98997.77;68291;1283;1014807;-68
2024/03/17 00:31:15;;;;;;;;;;;;;;;16.25;50.55;98994.70;68289;1283;1015757;-69
2024/03/17 00:34:18;;;;;;;;;;;;;;;16.06;51.14;99012.02;68298;1283;1015553;-69
2024/03/17 00:37:21;;;;;;;;;;;;;;;15.95;51.49;99019.92;68287;1283;1015313;-62
2024/03/17 00:40:24;;;;;;;;;;;;;;;16.05;50.87;99033.56;68280;1283;1015225;-68
2024/03/17 00:43:26;;;;;;;;;;;;;;;15.93;50.80;99047.89;68296;1283;1015781;-69
2024/03/17 00:46:29;;;;;;;;;;;;;;;15.55;50.55;99066.23;68279;1283;1015444;-68
2024/03/17 00:49:31;;;;;;;;;;;;;;;15.23;50.59;99063.83;68282;1283;1016394;-62
2024/03/17 00:52:34;;;;;;;;;;;;;;;14.83;51.65;99064.28;68283;1283;1015576;-62
2024/03/17 00:55:37;;;;;;;;;;;;;;;14.78;51.46;99068.50;68286;1283;1015978;-68
2024/03/17 00:58:39;;;;;;;;;;;;;;;14.81;51.49;99059.80;68286;1283;1015992;-62
2024/03/17 01:01:43;;;;;;;;;;;;;;;14.94;50.94;99051.26;68277;1283;1016080;-69
2024/03/17 01:04:46;;;;;;;;;;;;;;;15.04;50.81;99049.48;68294;1283;1015495;-68
2024/03/17 01:07:49;;;;;;;;;;;;;;;14.94;51.33;99053.80;68282;1283;1014908;-68
2024/03/17 01:10:52;;;;;;;;;;;;;;;14.97;51.03;99054.43;68289;1283;1015823;-67
2024/03/17 01:13:54;;;;;;;;;;;;;;;14.82;51.51;99051.98;68286;1283;1014165;-62
2024/03/17 01:16:57;;;;;;;;;;;;;;;14.95;51.11;99050.73;68287;1283;1015857;-68
2024/03/17 01:19:59;;;;;;;;;;;;;;;14.91;51.50;99052.38;68280;1283;1015861;-68
2024/03/17 01:23:02;;;;;;;;;;;;;;;15.24;50.36;99048.86;68286;1283;1014780;-68
2024/03/17 01:26:04;;;;;;;;;;;;;;;14.95;51.23;99046.80;68293;1283;1015744;-69
2024/03/17 01:29:08;;;;;;;;;;;;;;;15.04;51.03;99043.54;68282;1283;1015625;-69
2024/03/17 01:32:11;;;;;;;;;;;;;;;14.98;50.87;99043.29;68285;1283;1015094;-68
2024/03/17 01:35:14;;;;;;;;;;;;;;;15.07;50.31;99036.90;68285;1283;1015569;-69
2024/03/17 01:38:16;;;;;;;;;;;;;;;14.90;50.35;99038.02;68285;1283;1015896;-69
2024/03/17 01:41:19;;;;;;;;;;;;;;;14.76;50.99;99040.33;68304;1283;1014394;-69
2024/03/17 01:44:22;;;;;;;;;;;;;;;14.84;50.69;99046.59;68291;1283;1015469;-69
2024/03/17 01:47:24;;;;;;;;;;;;;;;14.64;51.04;99050.30;68298;1283;1015147;-69
2024/03/17 01:50:27;;;;;;;;;;;;;;;14.69;50.74;99047.54;68273;1283;1015806;-69
2024/03/17 01:53:30;;;;;;;;;;;;;;;14.48;51.14;99051.63;68292;1283;1014683;-69
2024/03/17 01:56:33;;;;;;;;;;;;;;;14.50;51.00;99060.88;68292;1283;1015807;-62
2024/03/17 01:59:35;;;;;;;;;;;;;;;14.64;50.29;99060.71;68291;1283;1016012;-62
2024/03/17 02:02:38;;;;;;;;;;;;;;;14.39;50.79;99064.98;68290;1283;1016009;-62
2024/03/17 02:05:40;;;;;;;;;;;;;;;14.42;50.94;99072.90;68291;1283;1015551;-62
2024/03/17 02:08:43;;;;;;;;;;;;;;;14.56;50.27;99066.18;68294;1283;1015173;-68
2024/03/17 02:11:45;;;;;;;;;;;;;;;14.59;50.00;99062.29;68289;1283;1015560;-69
2024/03/17 02:14:48;;;;;;;;;;;;;;;14.16;50.87;99055.38;68282;1283;1016627;-69
2024/03/17 02:17:50;;;;;;;;;;;;;;;14.10;50.93;99056.34;68273;1283;1015570;-64
2024/03/17 02:20:58;;;;;;;;;;;;;;;14.25;50.47;99056.29;68284;1283;1014460;-69
2024/03/17 02:24:01;;;;;;;;;;;;;;;14.14;50.60;99062.02;68293;1283;1015961;-64
2024/03/17 02:27:04;;;;;;;;;;;;;;;14.19;50.71;99065.17;68267;1283;1015362;-69
2024/03/17 02:30:08;;;;;;;;;;;;;;;14.33;50.14;99070.35;68282;1283;1014574;-69
2024/03/17 02:33:11;;;;;;;;;;;;;;;14.57;49.28;99072.69;68292;1283;1014756;-62
2024/03/17 02:36:14;;;;;;;;;;;;;;;14.56;49.10;99072.90;68275;1283;1015442;-69
2024/03/17 02:42:38;;;;;;;;;;;;;;;14.38;49.36;99072.44;68279;1283;1016225;-68
2024/03/17 02:45:40;;;;;;;;;;;;;;;14.33;49.41;99077.35;68286;1283;1015569;-68
2024/03/17 02:48:44;;;;;;;;;;;;;;;13.94;50.20;99080.73;68289;1283;1015573;-62
2024/03/17 02:51:47;;;;;;;;;;;;;;;13.74;50.68;99085.66;68281;1283;1016170;-69
2024/03/17 02:54:49;;;;;;;;;;;;;;;13.79;50.35;99085.45;68288;1283;1016139;-69
2024/03/17 02:57:52;;;;;;;;;;;;;;;13.84;50.55;99083.52;68278;1283;1015754;-68
2024/03/17 03:00:54;;;;;;;;;;;;;;;13.78;50.22;99088.13;68267;1283;1015688;-62
2024/03/17 03:03:56;;;;;;;;;;;;;;;14.08;49.80;99083.77;68292;1283;1016150;-69
2024/03/17 03:06:59;;;;;;;;;;;;;;;14.27;48.96;99082.41;68291;1283;1015156;-69
2024/03/17 03:10:01;;;;;;;;;;;;;;;13.87;49.88;99092.10;68292;1283;1016117;-69
2024/03/17 03:13:04;;;;;;;;;;;;;;;14.18;48.96;99088.00;68287;1283;1016800;-68
2024/03/17 03:16:07;;;;;;;;;;;;;;;13.81;49.83;99086.84;68285;1283;1015282;-67
2024/03/17 03:19:10;;;;;;;;;;;;;;;14.31;48.73;99092.14;68280;1283;1015792;-69
2024/03/17 03:22:12;;;;;;;;;;;;;;;14.14;48.84;99097.00;68273;1283;1015132;-69
2024/03/17 03:25:15;;;;;;;;;;;;;;;13.88;49.22;99103.44;68294;1283;1016269;-69
2024/03/17 03:28:18;;;;;;;;;;;;;;;13.57;49.96;99104.90;68288;1283;1015089;-69
2024/03/17 03:31:20;;;;;;;;;;;;;;;13.28;50.61;99111.55;68276;1283;1016195;-62
2024/03/17 03:34:24;;;;;;;;;;;;;;;13.49;49.69;99113.66;68274;1283;1015216;-61
2024/03/17 03:37:26;;;;;;;;;;;;;;;13.85;48.44;99110.81;68284;1283;1015853;-69
2024/03/17 03:40:29;;;;;;;;;;;;;;;13.93;48.24;99113.27;68284;1283;1015243;-68
2024/03/17 03:43:31;;;;;;;;;;;;;;;13.75;48.85;99121.38;68286;1283;1015918;-69
2024/03/17 03:46:34;;;;;;;;;;;;;;;13.78;48.50;99120.46;68270;1283;1015922;-69
2024/03/17 03:49:36;;;;;;;;;;;;;;;13.83;48.30;99123.48;68283;1283;1016105;-69
2024/03/17 03:52:40;;;;;;;;;;;;;;;13.57;48.74;99131.55;68281;1283;1016403;-65
2024/03/17 03:55:42;;;;;;;;;;;;;;;13.61;48.75;99133.77;68278;1283;1015347;-69
2024/03/17 03:58:46;;;;;;;;;;;;;;;13.37;48.93;99137.45;68290;1283;1015341;-62
2024/03/17 04:01:49;;;;;;;;;;;;;;;13.34;48.94;99136.78;68278;1283;1015650;-62
2024/03/17 04:04:51;;;;;;;;;;;;;;;13.40;48.71;99139.42;68272;1283;1016204;-69
2024/03/17 04:07:54;;;;;;;;;;;;;;;13.23;48.92;99136.28;68280;1283;1014314;-69
2024/03/17 04:10:56;;;;;;;;;;;;;;;13.19;48.86;99148.16;68274;1283;1015613;-62
2024/03/17 04:14:00;;;;;;;;;;;;;;;13.20;48.66;99149.85;68274;1283;1016403;-69
2024/03/17 04:17:03;;;;;;;;;;;;;;;13.14;48.56;99154.78;68286;1283;1015883;-62
2024/03/17 04:20:08;;;;;;;;;;;;;;;13.22;48.42;99158.98;68287;1283;1015784;-62
2024/03/17 04:23:10;;;;;;;;;;;;;;;13.25;48.14;99152.45;68276;1283;1015123;-62
2024/03/17 04:26:14;;;;;;;;;;;;;;;13.24;47.90;99152.17;68282;1283;1016205;-69
2024/03/17 04:29:16;;;;;;;;;;;;;;;13.16;48.10;99154.45;68290;1283;1015435;-62
2024/03/17 04:32:19;;;;;;;;;;;;;;;13.15;48.02;99152.94;68278;1283;1015455;-69
2024/03/17 04:35:21;;;;;;;;;;;;;;;13.12;48.02;99158.08;68297;1283;1015486;-69
2024/03/17 04:38:24;;;;;;;;;;;;;;;13.03;48.41;99156.92;68283;1283;1015827;-62
2024/03/17 04:41:27;;;;;;;;;;;;;;;13.07;48.13;99163.70;68283;1283;1015835;-69
2024/03/17 04:44:29;;;;;;;;;;;;;;;13.10;47.87;99172.58;68285;1283;1014838;-62
2024/03/17 04:47:32;;;;;;;;;;;;;;;12.75;48.76;99171.36;68278;1283;1015514;-69
2024/03/17 04:50:34;;;;;;;;;;;;;;;12.65;49.10;99176.61;68285;1283;1016071;-69
2024/03/17 04:53:37;;;;;;;;;;;;;;;12.71;48.90;99174.46;68292;1283;1014221;-62
2024/03/17 04:56:39;;;;;;;;;;;;;;;12.62;49.10;99175.93;68281;1283;1015239;-69
2024/03/17 04:59:42;;;;;;;;;;;;;;;12.58;49.24;99172.98;68287;1283;1016041;-66
2024/03/17 05:02:44;;;;;;;;;;;;;;;12.58;49.17;99172.44;68287;1283;1015464;-62
2024/03/17 05:05:46;;;;;;;;;;;;;;;12.60;49.01;99171.63;68295;1283;1016141;-69
2024/03/17 05:08:50;;;;;;;;;;;;;;;12.73;48.49;99175.02;68283;1283;1015146;-63
2024/03/17 05:11:53;;;;;;;;;;;;;;;12.70;48.53;99177.67;68294;1283;1015083;-64
2024/03/17 05:14:56;;;;;;;;;;;;;;;12.24;49.45;99180.52;68287;1283;1015963;-65
2024/03/17 05:17:58;;;;;;;;;;;;;;;12.48;48.84;99178.88;68278;1283;1015794;-69
2024/03/17 05:21:01;;;;;;;;;;;;;;;12.45;48.87;99175.36;68277;1283;1015672;-69
2024/03/17 05:24:03;;;;;;;;;;;;;;;12.49;48.68;99178.29;68280;1283;1015652;-69
2024/03/17 05:27:06;;;;;;;;;;;;;;;12.70;48.09;99183.98;65702;1282;6410149;-69
2024/03/17 05:30:09;;;;;;;;;;;;;;;12.65;48.01;99186.56;68288;1283;1015553;-67
2024/03/17 05:33:12;;;;;;;;;;;;;;;12.36;48.80;99192.09;68287;1283;1015819;-69
2024/03/17 05:36:14;;;;;;;;;;;;;;;12.34;48.82;99194.29;68289;1283;1016184;-69
2024/03/17 05:39:17;;;;;;;;;;;;;;;12.18;49.30;99203.02;68283;1283;1016181;-69
2024/03/17 05:42:20;;;;;;;;;;;;;;;12.35;48.77;99197.57;68285;1283;1015306;-69
2024/03/17 05:45:22;;;;;;;;;;;;;;;12.36;48.65;99203.13;68282;1283;1014821;-69
2024/03/17 05:48:25;;;;;;;;;;;;;;;12.75;47.70;99202.10;68287;1283;1015666;-63
2024/03/17 05:51:27;;;;;;;;;;;;;;;12.82;47.51;99206.89;68288;1283;1016022;-69
2024/03/17 05:54:30;;;;;;;;;;;;;;;12.83;47.25;99209.98;68287;1283;1016282;-69
2024/03/17 05:57:32;;;;;;;;;;;;;;;12.91;47.03;99213.02;68279;1283;1014796;-69
2024/03/17 06:00:35;;;;;;;;;;;;;;;12.90;46.83;99216.00;68282;1283;1014405;-69
2024/03/17 06:03:38;;;;;;;;;;;;;;;12.87;46.51;99215.33;68285;1283;1016390;-63
2024/03/17 06:06:40;;;;;;;;;;;;;;;12.90;46.17;99221.14;68290;1283;1015987;-62
2024/03/17 06:09:43;;;;;;;;;;;;;;;12.96;46.18;99222.35;68287;1283;1014971;-70
2024/03/17 06:12:45;;;;;;;;;;;;;;;12.82;46.46;99224.80;68290;1283;1015590;-62
2024/03/17 06:15:48;;;;;;;;;;;;;;;12.68;46.34;99225.33;68282;1283;1015254;-69
2024/03/17 06:18:51;;;;;;;;;;;;;;;12.77;46.40;99231.40;68286;1283;1015625;-70
2024/03/17 06:21:54;;;;;;;;;;;;;;;12.84;46.36;99227.13;68289;1283;1015674;-69
2024/03/17 06:24:56;;;;;;;;;;;;;;;12.78;45.99;99240.84;68283;1283;1016115;-66
2024/03/17 06:28:01;;;;;;;;;;;;;;;12.70;45.85;99244.14;68286;1283;1015970;-70
2024/03/17 06:31:07;;;;;;;;;;;;;;;12.74;45.66;99246.55;68287;1283;1015880;-69
2024/03/17 06:34:09;;;;;;;;;;;;;;;12.43;45.82;99243.91;68286;1283;1015905;-63
2024/03/17 06:37:11;;;;;;;;;;;;;;;12.82;45.16;99242.91;68277;1283;1015412;-65
2024/03/17 06:40:14;;;;;;;;;;;;;;;12.48;45.09;99250.43;68290;1283;1015637;-68
2024/03/17 06:43:17;;;;;;;;;;;;;;;12.43;45.04;99247.08;68280;1283;1016064;-70
2024/03/17 06:46:19;;;;;;;;;;;;;;;12.48;44.72;99248.19;68300;1283;1016164;-70
2024/03/17 06:49:21;;;;;;;;;;;;;;;12.58;44.60;99246.66;68289;1283;1015899;-69
2024/03/17 06:52:24;;;;;;;;;;;;;;;12.68;44.00;99253.26;68292;1283;1016242;-70
2024/03/17 06:55:28;;;;;;;;;;;;;;;12.95;43.34;99253.31;68287;1283;1016205;-70
2024/03/17 06:58:30;;;;;;;;;;;;;;;13.17;43.73;99257.15;68281;1283;1015267;-70
2024/03/17 07:01:32;;;;;;;;;;;;;;;13.25;42.84;99259.64;68289;1283;1016119;-63
2024/03/17 07:04:35;;;;;;;;;;;;;;;13.04;43.14;99268.82;68286;1283;1015876;-69
2024/03/17 07:07:38;;;;;;;;;;;;;;;12.80;43.00;99260.92;68291;1283;1016336;-70
2024/03/17 07:10:40;;;;;;;;;;;;;;;12.55;44.06;99263.89;68295;1283;1015326;-69
2024/03/17 07:13:43;;;;;;;;;;;;;;;12.80;43.53;99269.48;68287;1283;1015392;-69
2024/03/17 07:16:45;;;;;;;;;;;;;;;12.57;44.22;99267.05;68297;1283;1015646;-67
2024/03/17 07:19:49;;;;;;;;;;;;;;;12.54;43.28;99275.86;68295;1283;1016344;-62
2024/03/17 07:22:51;;;;;;;;;;;;;;;12.47;42.68;99282.22;68305;1283;1015594;-62
2024/03/17 07:25:54;;;;;;;;;;;;;;;12.27;42.77;99279.79;68295;1283;1015819;-69
2024/03/17 07:28:57;;;;;;;;;;;;;;;12.91;42.00;99271.95;68277;1283;1016110;-70
2024/03/17 07:31:59;;;;;;;;;;;;;;;13.19;41.17;99274.75;68292;1283;1015676;-69
2024/03/17 07:35:03;;;;;;;;;;;;;;;13.36;40.33;99270.33;68280;1283;1015789;-69
2024/03/17 07:38:05;;;;;;;;;;;;;;;13.37;40.54;99272.92;68288;1283;1015752;-70
2024/03/17 07:41:08;;;;;;;;;;;;;;;13.36;40.13;99279.67;68293;1283;1015711;-66
2024/03/17 07:44:10;;;;;;;;;;;;;;;13.24;39.71;99278.82;68279;1283;1015686;-68
2024/03/17 07:47:13;;;;;;;;;;;;;;;13.26;39.61;99285.69;68290;1283;1015772;-70
2024/03/17 07:50:15;;;;;;;;;;;;;;;13.23;39.45;99289.60;68293;1283;1015256;-69
2024/03/17 07:53:18;;;;;;;;;;;;;;;13.36;38.55;99285.42;68300;1283;1016025;-69
2024/03/17 07:56:21;;;;;;;;;;;;;;;13.35;37.71;99288.34;68293;1283;1015888;-64
2024/03/17 07:59:23;;;;;;;;;;;;;;;13.44;39.26;99292.83;68287;1283;1015445;-70
2024/03/17 08:02:26;;;;;;;;;;;;;;;13.45;38.66;99286.96;68305;1283;1015534;-70
2024/03/17 08:05:29;;;;;;;;;;;;;;;13.54;38.48;99284.65;68291;1283;1015291;-70
2024/03/17 08:08:31;;;;;;;;;;;;;;;13.50;39.03;99284.40;68282;1283;1015556;-70
2024/03/17 08:11:34;;;;;;;;;;;;;;;13.58;39.14;99292.11;68302;1283;1015371;-70
2024/03/17 08:14:36;;;;;;;;;;;;;;;13.53;38.53;99297.36;68279;1283;1015321;-70
2024/03/17 08:17:39;;;;;;;;;;;;;;;13.28;37.29;99298.95;68293;1283;1016176;-64
2024/03/17 08:20:42;;;;;;;;;;;;;;;13.40;37.15;99296.24;68291;1283;1015924;-70
2024/03/17 08:23:46;;;;;;;;;;;;;;;13.56;37.04;99290.14;68290;1283;1015600;-69
2024/03/17 08:26:49;;;;;;;;;;;;;;;13.85;36.67;99279.73;68291;1283;1016307;-69
2024/03/17 08:29:51;;;;;;;;;;;;;;;13.78;36.19;99281.46;68301;1283;1016138;-63
2024/03/17 08:32:54;;;;;;;;;;;;;;;14.46;37.11;99265.41;68299;1283;1016479;-69
2024/03/17 08:35:56;;;;;;;;;;;;;;;14.95;36.03;99262.11;68286;1283;1014952;-62
2024/03/17 08:38:59;;;;;;;;;;;;;;;14.80;35.24;99267.62;68292;1283;1015474;-69
2024/03/17 08:42:02;;;;;;;;;;;;;;;14.80;34.88;99277.10;68285;1283;1016039;-70
2024/03/17 08:45:04;;;;;;;;;;;;;;;14.43;35.53;99275.98;68284;1283;1015972;-70
2024/03/17 08:48:07;;;;;;;;;;;;;;;13.92;35.74;99270.50;68299;1283;1014818;-62
2024/03/17 08:51:09;;;;;;;;;;;;;;;13.95;35.65;99263.66;68285;1283;1015341;-68
2024/03/17 08:54:12;;;;;;;;;;;;;;;13.95;36.95;99271.49;68291;1283;1015637;-69
2024/03/17 08:57:14;;;;;;;;;;;;;;;14.11;36.98;99276.23;68281;1283;1015603;-64
2024/03/17 09:00:17;;;;;;;;;;;;;;;14.22;36.23;99279.70;68294;1283;1015606;-69
2024/03/17 09:03:19;;;;;;;;;;;;;;;14.40;35.48;99279.56;68287;1283;1015611;-70
2024/03/17 09:06:22;;;;;;;;;;;;;;;14.38;36.27;99279.33;68291;1283;1016192;-65
2024/03/17 09:09:25;;;;;;;;;;;;;;;14.67;36.08;99279.09;68292;1283;1015447;-69
2024/03/17 09:12:27;;;;;;;;;;;;;;;14.73;35.47;99279.37;68274;1283;1015768;-70
2024/03/17 09:15:30;;;;;;;;;;;;;;;14.65;35.47;99277.44;68304;1283;1015209;-69
2024/03/17 09:18:32;;;;;;;;;;;;;;;14.64;35.36;99276.48;68279;1283;1016136;-69
2024/03/17 09:21:35;;;;;;;;;;;;;;;14.64;35.05;99287.38;68294;1283;1014690;-69
2024/03/17 09:24:37;;;;;;;;;;;;;;;14.80;34.71;99289.13;68295;1283;1015963;-69
2024/03/17 09:27:40;;;;;;;;;;;;;;;14.64;33.82;99290.61;68299;1283;1015689;-70
2024/03/17 09:30:42;;;;;;;;;;;;;;;14.46;34.99;99284.27;68293;1283;1014788;-69
2024/03/17 09:33:45;;;;;;;;;;;;;;;14.65;34.97;99273.08;68301;1283;1016296;-63
2024/03/17 09:36:47;;;;;;;;;;;;;;;14.90;34.98;99271.82;68283;1283;1015462;-70
2024/03/17 09:39:51;;;;;;;;;;;;;;;15.06;34.11;99268.79;68297;1283;1014288;-63
2024/03/17 09:42:53;;;;;;;;;;;;;;;15.60;34.16;99272.09;68283;1283;1015863;-70
2024/03/17 09:45:57;;;;;;;;;;;;;;;15.82;34.49;99256.81;68308;1283;1016175;-70
2024/03/17 09:49:00;;;;;;;;;;;;;;;15.96;34.21;99259.70;68296;1283;1015517;-68
2024/03/17 09:52:02;;;;;;;;;;;;;;;15.84;33.41;99266.57;68282;1283;1015564;-62
2024/03/17 09:55:05;;;;;;;;;;;;;;;16.12;33.47;99247.16;68302;1283;1016262;-69
2024/03/17 09:58:07;;;;;;;;;;;;;;;16.30;33.73;99260.21;68284;1283;1015569;-63
2024/03/17 10:01:10;;;;;;;;;;;;;;;15.63;33.48;99271.47;68291;1283;1015853;-69
2024/03/17 10:04:12;;;;;;;;;;;;;;;15.47;33.79;99265.04;68301;1283;1016273;-69
2024/03/17 10:07:15;;;;;;;;;;;;;;;15.70;34.04;99263.34;68305;1283;1014346;-69
2024/03/17 10:10:18;;;;;;;;;;;;;;;15.75;34.18;99272.91;68295;1283;1015565;-69
2024/03/17 10:13:21;;;;;;;;;;;;;;;15.69;33.91;99272.08;68294;1283;1015425;-69
2024/03/17 10:16:24;;;;;;;;;;;;;;;15.75;33.70;99275.34;68278;1283;1015674;-69
2024/03/17 10:19:27;;;;;;;;;;;;;;;16.05;33.79;99261.77;68298;1283;1015971;-69
2024/03/17 10:22:30;;;;;;;;;;;;;;;16.13;34.43;99259.21;68291;1283;1015711;-69
2024/03/17 10:25:32;;;;;;;;;;;;;;;16.07;33.89;99263.60;68289;1283;1016706;-70
2024/03/17 10:28:35;;;;;;;;;;;;;;;15.97;33.39;99255.90;68300;1283;1016053;-69
2024/03/17 10:31:37;;;;;;;;;;;;;;;15.22;34.28;99263.70;68294;1283;1014732;-69
2024/03/17 10:34:40;;;;;;;;;;;;;;;15.48;33.41;99253.02;68272;1283;1016218;-63
2024/03/17 10:37:42;;;;;;;;;;;;;;;15.05;32.99;99263.38;68295;1283;1014777;-70
2024/03/17 10:40:45;;;;;;;;;;;;;;;15.29;32.82;99261.45;68278;1283;1016433;-69
2024/03/17 10:43:47;;;;;;;;;;;;;;;15.58;33.19;99259.81;68276;1283;1016170;-69
2024/03/17 10:46:50;;;;;;;;;;;;;;;15.27;33.55;99264.05;68279;1283;1015676;-70
2024/03/17 10:49:53;;;;;;;;;;;;;;;14.90;34.59;99265.89;68287;1283;1014891;-69
2024/03/17 10:52:56;;;;;;;;;;;;;;;14.94;34.99;99259.19;68280;1283;1016051;-62
2024/03/17 10:55:59;;;;;;;;;;;;;;;15.16;34.62;99254.10;68287;1283;1015775;-69
2024/03/17 10:59:03;;;;;;;;;;;;;;;15.48;34.95;99255.45;68280;1283;1015454;-70
2024/03/17 11:02:05;;;;;;;;;;;;;;;15.31;33.95;99270.45;68282;1283;1015699;-69
2024/03/17 11:05:09;;;;;;;;;;;;;;;15.37;34.22;99259.80;68288;1283;1016214;-69
2024/03/17 11:08:11;;;;;;;;;;;;;;;15.33;34.31;99258.73;68285;1283;1014174;-69
2024/03/17 11:11:14;;;;;;;;;;;;;;;14.93;35.15;99265.13;68274;1283;1015903;-70
2024/03/17 11:14:17;;;;;;;;;;;;;;;15.40;34.93;99255.92;68279;1283;1014735;-69
2024/03/17 11:17:19;;;;;;;;;;;;;;;15.24;34.67;99253.89;68284;1283;1015243;-62
2024/03/17 11:20:22;;;;;;;;;;;;;;;15.22;34.82;99263.52;68288;1283;1014970;-69
2024/03/17 11:23:25;;;;;;;;;;;;;;;15.02;35.19;99255.48;68274;1283;1015395;-69
2024/03/17 11:26:27;;;;;;;;;;;;;;;14.80;35.92;99253.73;68299;1283;1015321;-69
2024/03/17 11:29:30;;;;;;;;;;;;;;;14.89;35.35;99243.42;68292;1283;1015423;-69
2024/03/17 11:32:33;;;;;;;;;;;;;;;14.95;35.16;99249.45;68292;1283;1015916;-69
2024/03/17 11:35:36;;;;;;;;;;;;;;;15.43;34.78;99247.60;68297;1283;1014442;-69
2024/03/17 11:38:39;;;;;;;;;;;;;;;15.27;34.04;99246.67;68294;1283;1014456;-69
2024/03/17 11:41:41;;;;;;;;;;;;;;;15.12;34.08;99247.71;68280;1283;1015418;-69
2024/03/17 11:44:45;;;;;;;;;;;;;;;15.21;34.30;99244.07;68285;1283;1015462;-69
2024/03/17 11:47:48;;;;;;;;;;;;;;;14.99;34.55;99246.74;68293;1283;1016004;-70
2024/03/17 11:50:50;;;;;;;;;;;;;;;14.95;35.21;99241.20;68309;1283;1015914;-69
2024/03/17 11:53:53;;;;;;;;;;;;;;;15.04;35.24;99235.65;68302;1283;1015390;-70
2024/03/17 11:56:55;;;;;;;;;;;;;;;15.11;35.09;99234.44;68291;1283;1016543;-67
2024/03/17 11:59:58;;;;;;;;;;;;;;;14.84;34.85;99240.08;68292;1283;1015807;-62
2024/03/17 12:03:03;;;;;;;;;;;;;;;14.86;34.74;99239.17;68297;1283;1015347;-70
2024/03/17 12:06:06;;;;;;;;;;;;;;;14.62;34.40;99242.50;68293;1283;1015287;-62
2024/03/17 12:09:09;;;;;;;;;;;;;;;14.48;34.79;99243.26;68294;1283;1015711;-69
2024/03/17 12:12:12;;;;;;;;;;;;;;;14.54;35.12;99241.97;68293;1283;1016043;-70
2024/03/17 12:15:15;;;;;;;;;;;;;;;14.31;35.56;99247.11;68292;1283;1016030;-69
2024/03/17 12:18:17;;;;;;;;;;;;;;;14.26;36.18;99243.90;68281;1283;1015800;-69
2024/03/17 12:21:20;;;;;;;;;;;;;;;14.56;35.95;99232.54;68292;1283;1015856;-69
2024/03/17 12:24:22;;;;;;;;;;;;;;;14.05;36.03;99226.20;68290;1283;1015252;-69
2024/03/17 12:27:25;;;;;;;;;;;;;;;14.46;36.66;99220.33;68283;1283;1015992;-62
2024/03/17 12:30:27;;;;;;;;;;;;;;;15.17;35.67;99221.66;68292;1283;1015845;-69
2024/03/17 12:33:31;;;;;;;;;;;;;;;15.41;35.52;99212.48;68288;1283;1016481;-62
2024/03/17 12:36:34;;;;;;;;;;;;;;;15.66;33.49;99204.94;68303;1283;1015402;-70
2024/03/17 12:39:39;;;;;;;;;;;;;;;15.62;33.50;99201.04;68297;1283;1015344;-69
2024/03/17 12:42:41;;;;;;;;;;;;;;;16.15;33.61;99204.63;68298;1283;1015729;-69
2024/03/17 12:45:46;;;;;;;;;;;;;;;16.22;32.44;99201.39;68289;1283;1015469;-69
2024/03/17 12:48:48;;;;;;;;;;;;;;;15.96;32.85;99209.41;68288;1283;1016201;-62
2024/03/17 12:51:50;;;;;;;;;;;;;;;16.24;33.03;99189.06;68287;1283;1015677;-69
2024/03/17 13:00:30;;;;;;;;;;;;;;;15.89;32.97;99195.79;68293;1283;1014856;-69
2024/03/17 13:01:36;;;;;;;;;;;;;;;15.67;32.54;99179.15;68299;1283;1015606;-68
2024/03/17 13:04:38;;;;;;;;;;;;;;;15.64;32.87;99184.84;68286;1283;1014574;-69
2024/03/17 13:07:41;;;;;;;;;;;;;;;15.54;32.88;99180.33;68290;1283;1014693;-69
2024/03/17 13:10:44;;;;;;;;;;;;;;;15.43;33.00;99177.95;68296;1283;1015377;-63
2024/03/17 13:13:46;;;;;;;;;;;;;;;15.65;32.99;99169.75;68294;1283;1015934;-64
2024/03/17 13:16:49;;;;;;;;;;;;;;;15.30;33.63;99167.12;68299;1283;1015585;-69
2024/03/17 13:19:51;;;;;;;;;;;;;;;15.31;33.65;99165.96;68294;1283;1016032;-69
2024/03/17 13:22:54;;;;;;;;;;;;;;;15.33;33.99;99177.81;68299;1283;1015568;-69
2024/03/17 13:25:56;;;;;;;;;;;;;;;15.16;33.44;99180.14;68287;1283;1015803;-69
2024/03/17 13:28:59;;;;;;;;;;;;;;;15.12;34.26;99171.67;68294;1283;1015066;-69
2024/03/17 13:32:01;;;;;;;;;;;;;;;14.79;34.31;99178.14;68299;1283;1014568;-69
2024/03/17 13:35:04;;;;;;;;;;;;;;;14.62;34.69;99188.77;68291;1283;1016073;-70
2024/03/17 13:38:06;;;;;;;;;;;;;;;14.85;34.91;99182.73;68283;1283;1015642;-69
2024/03/17 13:41:09;;;;;;;;;;;;;;;14.78;34.79;99183.79;68290;1283;1016125;-68
2024/03/17 13:44:11;;;;;;;;;;;;;;;14.72;34.64;99170.70;68283;1283;1016164;-69
2024/03/17 13:47:14;;;;;;;;;;;;;;;14.79;35.19;99173.30;68295;1283;1015403;-69
2024/03/17 13:50:16;;;;;;;;;;;;;;;14.41;35.30;99180.91;68295;1283;1016336;-63
2024/03/17 13:53:19;;;;;;;;;;;;;;;14.18;35.66;99175.36;68288;1283;1015282;-62
2024/03/17 13:56:21;;;;;;;;;;;;;;;14.31;35.56;99177.48;68307;1283;1015803;-69
2024/03/17 13:59:24;;;;;;;;;;;;;;;14.40;35.79;99172.98;68290;1283;1015330;-70
2024/03/17 14:02:27;;;;;;;;;;;;;;;14.37;35.69;99175.40;68286;1283;1016158;-70
2024/03/17 14:05:29;;;;;;;;;;;;;;;14.51;35.95;99173.02;68284;1283;1016214;-69
2024/03/17 14:08:32;;;;;;;;;;;;;;;14.60;35.29;99170.98;68278;1283;1016243;-62
2024/03/17 14:11:34;;;;;;;;;;;;;;;14.37;36.06;99172.84;68288;1283;1015543;-69
2024/03/17 14:14:37;;;;;;;;;;;;;;;14.39;34.61;99179.90;68292;1283;1015165;-69
2024/03/17 14:17:39;;;;;;;;;;;;;;;14.34;34.89;99181.12;68288;1283;1014804;-69
2024/03/17 14:20:41;;;;;;;;;;;;;;;14.45;34.42;99180.48;68268;1283;1015936;-68
2024/03/17 14:23:45;;;;;;;;;;;;;;;14.21;35.36;99177.63;68289;1284;1015597;-62
2024/03/17 14:26:47;;;;;;;;;;;;;;;14.32;35.47;99169.08;68309;1283;1015944;-64
2024/03/17 14:29:49;;;;;;;;;;;;;;;14.11;35.72;99173.58;68280;1283;1016020;-70
2024/03/17 14:32:52;;;;;;;;;;;;;;;13.94;35.67;99177.69;68280;1283;1015982;-70
2024/03/17 14:35:56;;;;;;;;;;;;;;;14.41;35.43;99170.92;68287;1283;1016198;-70
2024/03/17 14:38:59;;;;;;;;;;;;;;;14.17;35.50;99178.93;68289;1284;1014819;-69
2024/03/17 14:42:01;;;;;;;;;;;;;;;13.91;36.02;99184.64;68285;1283;1015637;-69
2024/03/17 14:45:04;;;;;;;;;;;;;;;14.31;35.61;99178.48;68292;1283;1015418;-62
2024/03/17 14:48:09;;;;;;;;;;;;;;;14.30;35.48;99179.96;68286;1283;1015264;-62
2024/03/17 14:51:11;;;;;;;;;;;;;;;14.40;35.79;99182.63;68277;1283;1016014;-63
2024/03/17 14:54:14;;;;;;;;;;;;;;;14.15;35.96;99177.19;68286;1283;1015822;-70
2024/03/17 14:57:18;;;;;;;;;;;;;;;14.38;35.56;99180.98;68282;1283;1015954;-69
2024/03/17 15:00:22;;;;;;;;;;;;;;;14.33;35.51;99181.31;68287;1283;1015195;-69
2024/03/17 15:03:24;;;;;;;;;;;;;;;14.44;35.65;99181.77;68297;1283;1016264;-68
2024/03/17 15:06:27;;;;;;;;;;;;;;;14.43;35.71;99179.59;68300;1283;1016132;-70
2024/03/17 15:09:30;;;;;;;;;;;;;;;14.38;35.97;99180.11;68288;1283;1015285;-70
2024/03/17 15:12:32;;;;;;;;;;;;;;;14.31;36.09;99175.52;68296;1283;1015797;-70
2024/03/17 15:15:35;;;;;;;;;;;;;;;14.41;35.88;99174.81;68287;1283;1015218;-66
2024/03/17 15:18:38;;;;;;;;;;;;;;;14.06;36.19;99177.63;68298;1283;1016096;-61
2024/03/17 15:21:41;;;;;;;;;;;;;;;14.13;36.61;99181.48;68278;1283;1015949;-62
2024/03/17 15:24:43;;;;;;;;;;;;;;;14.28;35.70;99185.94;68303;1283;1015887;-70
2024/03/17 15:27:46;;;;;;;;;;;;;;;14.30;36.11;99186.30;68292;1283;1015440;-62
2024/03/17 15:30:48;;;;;;;;;;;;;;;13.97;36.76;99194.21;68286;1282;1016245;-70
2024/03/17 15:33:51;;;;;;;;;;;;;;;13.80;36.74;99198.39;68285;1283;1016152;-69